sensor_id;sensor_type;location;lat;lon;timestamp;P1;durP1;ratioP1;P2;durP2;ratioP2
51459;SDS011;37534;39.772;2.718;2023-05-10T00:01:53;2.33;;;1.83;;
51459;SDS011;37534;39.772;2.718;2023-05-10T00:04:19;3.28;;;2.03;;
51459;SDS011;37534;39.772;2.718;2023-05-10T00:06:45;2.80;;;1.52;;
51459;SDS011;37534;39.772;2.718;2023-05-10T00:09:11;1.45;;;1.35;;
51459;SDS011;37534;39.772;2.718;2023-05-10T00:11:36;1.75;;;1.60;;
51459;SDS011;37534;39.772;2.718;2023-05-10T00:14:02;7.93;;;1.90;;
51459;SDS011;37534;39.772;2.718;2023-05-10T00:16:27;4.40;;;1.45;;
51459;SDS011;37534;39.772;2.718;2023-05-10T00:18:53;6.15;;;1.83;;
51459;SDS011;37534;39.772;2.718;2023-05-10T00:21:18;3.70;;;1.60;;
51459;SDS011;37534;39.772;2.718;2023-05-10T00:23:44;1.75;;;1.63;;
51459;SDS011;37534;39.772;2.718;2023-05-10T00:26:10;1.95;;;1.83;;
51459;SDS011;37534;39.772;2.718;2023-05-10T00:28:36;1.75;;;1.60;;
51459;SDS011;37534;39.772;2.718;2023-05-10T00:31:02;1.45;;;1.33;;
51459;SDS011;37534;39.772;2.718;2023-05-10T00:33:28;2.58;;;1.40;;
51459;SDS011;37534;39.772;2.718;2023-05-10T00:35:53;2.00;;;0.80;;
51459;SDS011;37534;39.772;2.718;2023-05-10T00:38:19;2.95;;;1.17;;
51459;SDS011;37534;39.772;2.718;2023-05-10T00:40:44;2.60;;;1.02;;
51459;SDS011;37534;39.772;2.718;2023-05-10T00:43:09;8.60;;;1.35;;
51459;SDS011;37534;39.772;2.718;2023-05-10T00:45:35;7.40;;;1.15;;
51459;SDS011;37534;39.772;2.718;2023-05-10T00:48:02;1.77;;;1.02;;
51459;SDS011;37534;39.772;2.718;2023-05-10T00:50:28;1.52;;;0.75;;
51459;SDS011;37534;39.772;2.718;2023-05-10T00:52:56;2.20;;;0.90;;
51459;SDS011;37534;39.772;2.718;2023-05-10T00:55:23;1.70;;;1.15;;
51459;SDS011;37534;39.772;2.718;2023-05-10T00:57:49;1.85;;;0.82;;
51459;SDS011;37534;39.772;2.718;2023-05-10T01:00:14;5.85;;;1.02;;
51459;SDS011;37534;39.772;2.718;2023-05-10T01:02:46;7.05;;;0.75;;
51459;SDS011;37534;39.772;2.718;2023-05-10T01:05:12;3.25;;;0.93;;
51459;SDS011;37534;39.772;2.718;2023-05-10T01:07:38;4.90;;;0.60;;
51459;SDS011;37534;39.772;2.718;2023-05-10T01:10:04;1.95;;;0.85;;
51459;SDS011;37534;39.772;2.718;2023-05-10T01:12:31;1.60;;;0.60;;
51459;SDS011;37534;39.772;2.718;2023-05-10T01:14:58;1.85;;;0.57;;
51459;SDS011;37534;39.772;2.718;2023-05-10T01:17:25;1.90;;;0.50;;
51459;SDS011;37534;39.772;2.718;2023-05-10T01:19:50;3.42;;;1.05;;
51459;SDS011;37534;39.772;2.718;2023-05-10T01:27:54;1.65;;;0.77;;
51459;SDS011;37534;39.772;2.718;2023-05-10T01:33:52;0.25;;;0.22;;
51459;SDS011;37534;39.772;2.718;2023-05-10T01:36:31;1.35;;;0.40;;
51459;SDS011;37534;39.772;2.718;2023-05-10T01:39:08;1.13;;;0.50;;
51459;SDS011;37534;39.772;2.718;2023-05-10T01:41:49;0.43;;;0.20;;
51459;SDS011;37534;39.772;2.718;2023-05-10T01:47:09;0.55;;;0.32;;
51459;SDS011;37534;39.772;2.718;2023-05-10T01:49:59;0.40;;;0.25;;
51459;SDS011;37534;39.772;2.718;2023-05-10T01:52:26;3.42;;;0.60;;
51459;SDS011;37534;39.772;2.718;2023-05-10T01:55:01;0.40;;;0.30;;
51459;SDS011;37534;39.772;2.718;2023-05-10T01:57:33;0.10;;;0.10;;
51459;SDS011;37534;39.772;2.718;2023-05-10T02:00:07;0.30;;;0.22;;
51459;SDS011;37534;39.772;2.718;2023-05-10T02:02:38;0.30;;;0.30;;
51459;SDS011;37534;39.772;2.718;2023-05-10T02:05:07;0.45;;;0.28;;
51459;SDS011;37534;39.772;2.718;2023-05-10T02:07:35;0.57;;;0.30;;
51459;SDS011;37534;39.772;2.718;2023-05-10T02:10:02;0.75;;;0.52;;
51459;SDS011;37534;39.772;2.718;2023-05-10T02:12:30;0.20;;;0.20;;
51459;SDS011;37534;39.772;2.718;2023-05-10T02:15:00;0.43;;;0.30;;
51459;SDS011;37534;39.772;2.718;2023-05-10T02:17:29;0.10;;;0.10;;
51459;SDS011;37534;39.772;2.718;2023-05-10T02:19:56;1.55;;;0.40;;
51459;SDS011;37534;39.772;2.718;2023-05-10T02:22:25;4.63;;;0.47;;
51459;SDS011;37534;39.772;2.718;2023-05-10T02:24:53;6.63;;;0.52;;
51459;SDS011;37534;39.772;2.718;2023-05-10T02:27:20;0.20;;;0.20;;
51459;SDS011;37534;39.772;2.718;2023-05-10T02:29:49;0.38;;;0.25;;
51459;SDS011;37534;39.772;2.718;2023-05-10T02:32:16;5.65;;;0.30;;
51459;SDS011;37534;39.772;2.718;2023-05-10T02:34:43;0.60;;;0.20;;
51459;SDS011;37534;39.772;2.718;2023-05-10T02:37:12;0.20;;;0.15;;
51459;SDS011;37534;39.772;2.718;2023-05-10T02:39:39;0.10;;;0.10;;
51459;SDS011;37534;39.772;2.718;2023-05-10T02:42:09;0.30;;;0.30;;
51459;SDS011;37534;39.772;2.718;2023-05-10T02:44:41;1.60;;;0.30;;
51459;SDS011;37534;39.772;2.718;2023-05-10T02:47:08;0.15;;;0.10;;
51459;SDS011;37534;39.772;2.718;2023-05-10T02:49:33;0.45;;;0.30;;
51459;SDS011;37534;39.772;2.718;2023-05-10T02:52:01;0.30;;;0.20;;
51459;SDS011;37534;39.772;2.718;2023-05-10T02:57:04;1.17;;;0.47;;
51459;SDS011;37534;39.772;2.718;2023-05-10T02:59:30;0.08;;;0.08;;
51459;SDS011;37534;39.772;2.718;2023-05-10T03:01:58;0.13;;;0.10;;
51459;SDS011;37534;39.772;2.718;2023-05-10T03:04:25;0.45;;;0.28;;
51459;SDS011;37534;39.772;2.718;2023-05-10T03:06:51;0.13;;;0.13;;
51459;SDS011;37534;39.772;2.718;2023-05-10T03:09:17;1.00;;;0.32;;
51459;SDS011;37534;39.772;2.718;2023-05-10T03:12:04;0.85;;;0.35;;
51459;SDS011;37534;39.772;2.718;2023-05-10T03:20:12;1.13;;;0.40;;
51459;SDS011;37534;39.772;2.718;2023-05-10T03:22:57;2.17;;;0.40;;
51459;SDS011;37534;39.772;2.718;2023-05-10T03:25:28;0.68;;;0.40;;
51459;SDS011;37534;39.772;2.718;2023-05-10T03:27:56;0.47;;;0.47;;
51459;SDS011;37534;39.772;2.718;2023-05-10T03:30:22;0.35;;;0.35;;
51459;SDS011;37534;39.772;2.718;2023-05-10T03:32:50;1.02;;;0.40;;
51459;SDS011;37534;39.772;2.718;2023-05-10T03:35:15;1.85;;;0.57;;
51459;SDS011;37534;39.772;2.718;2023-05-10T03:37:41;1.17;;;0.20;;
51459;SDS011;37534;39.772;2.718;2023-05-10T03:40:07;0.30;;;0.30;;
51459;SDS011;37534;39.772;2.718;2023-05-10T03:42:33;2.50;;;0.35;;
51459;SDS011;37534;39.772;2.718;2023-05-10T03:44:59;0.60;;;0.20;;
51459;SDS011;37534;39.772;2.718;2023-05-10T03:47:25;0.77;;;0.20;;
51459;SDS011;37534;39.772;2.718;2023-05-10T03:49:50;1.10;;;0.30;;
51459;SDS011;37534;39.772;2.718;2023-05-10T03:52:16;4.75;;;0.45;;
51459;SDS011;37534;39.772;2.718;2023-05-10T03:54:43;0.10;;;0.10;;
51459;SDS011;37534;39.772;2.718;2023-05-10T03:57:08;0.32;;;0.17;;
51459;SDS011;37534;39.772;2.718;2023-05-10T03:59:34;0.40;;;0.40;;
51459;SDS011;37534;39.772;2.718;2023-05-10T04:02:00;0.40;;;0.30;;
51459;SDS011;37534;39.772;2.718;2023-05-10T04:04:25;1.77;;;0.35;;
51459;SDS011;37534;39.772;2.718;2023-05-10T04:06:51;0.57;;;0.35;;
51459;SDS011;37534;39.772;2.718;2023-05-10T04:09:16;1.27;;;0.40;;
51459;SDS011;37534;39.772;2.718;2023-05-10T04:11:42;1.83;;;0.40;;
51459;SDS011;37534;39.772;2.718;2023-05-10T04:14:08;0.88;;;0.43;;
51459;SDS011;37534;39.772;2.718;2023-05-10T04:16:33;0.80;;;0.40;;
51459;SDS011;37534;39.772;2.718;2023-05-10T04:18:59;0.68;;;0.40;;
51459;SDS011;37534;39.772;2.718;2023-05-10T04:21:25;1.13;;;0.47;;
51459;SDS011;37534;39.772;2.718;2023-05-10T04:23:50;0.93;;;0.20;;
51459;SDS011;37534;39.772;2.718;2023-05-10T04:26:16;0.60;;;0.20;;
51459;SDS011;37534;39.772;2.718;2023-05-10T04:28:41;0.68;;;0.68;;
51459;SDS011;37534;39.772;2.718;2023-05-10T04:31:09;0.68;;;0.32;;
51459;SDS011;37534;39.772;2.718;2023-05-10T04:33:35;0.20;;;0.20;;
51459;SDS011;37534;39.772;2.718;2023-05-10T04:36:01;1.65;;;0.60;;
51459;SDS011;37534;39.772;2.718;2023-05-10T04:38:28;0.60;;;0.17;;
51459;SDS011;37534;39.772;2.718;2023-05-10T04:40:54;0.40;;;0.20;;
51459;SDS011;37534;39.772;2.718;2023-05-10T04:43:28;1.80;;;0.63;;
51459;SDS011;37534;39.772;2.718;2023-05-10T04:45:55;3.55;;;0.52;;
51459;SDS011;37534;39.772;2.718;2023-05-10T04:48:21;1.75;;;0.52;;
51459;SDS011;37534;39.772;2.718;2023-05-10T04:50:47;0.55;;;0.40;;
51459;SDS011;37534;39.772;2.718;2023-05-10T04:53:12;2.13;;;0.73;;
51459;SDS011;37534;39.772;2.718;2023-05-10T04:55:38;0.95;;;0.45;;
51459;SDS011;37534;39.772;2.718;2023-05-10T04:58:03;0.15;;;0.05;;
51459;SDS011;37534;39.772;2.718;2023-05-10T05:00:29;0.52;;;0.25;;
51459;SDS011;37534;39.772;2.718;2023-05-10T05:02:54;0.65;;;0.32;;
51459;SDS011;37534;39.772;2.718;2023-05-10T05:05:20;3.50;;;0.75;;
51459;SDS011;37534;39.772;2.718;2023-05-10T05:07:46;2.15;;;0.75;;
51459;SDS011;37534;39.772;2.718;2023-05-10T05:10:11;1.17;;;0.45;;
51459;SDS011;37534;39.772;2.718;2023-05-10T05:12:37;0.80;;;0.50;;
51459;SDS011;37534;39.772;2.718;2023-05-10T05:15:03;0.60;;;0.30;;
51459;SDS011;37534;39.772;2.718;2023-05-10T05:17:31;0.63;;;0.43;;
51459;SDS011;37534;39.772;2.718;2023-05-10T05:19:57;0.60;;;0.60;;
51459;SDS011;37534;39.772;2.718;2023-05-10T05:22:23;0.30;;;0.30;;
51459;SDS011;37534;39.772;2.718;2023-05-10T05:24:52;0.98;;;0.70;;
51459;SDS011;37534;39.772;2.718;2023-05-10T05:27:21;1.92;;;0.47;;
51459;SDS011;37534;39.772;2.718;2023-05-10T05:29:52;2.08;;;0.60;;
51459;SDS011;37534;39.772;2.718;2023-05-10T05:32:18;1.08;;;0.60;;
51459;SDS011;37534;39.772;2.718;2023-05-10T05:34:44;7.97;;;0.50;;
51459;SDS011;37534;39.772;2.718;2023-05-10T05:37:13;1.33;;;0.60;;
51459;SDS011;37534;39.772;2.718;2023-05-10T05:39:39;2.13;;;0.77;;
51459;SDS011;37534;39.772;2.718;2023-05-10T05:42:05;0.75;;;0.47;;
51459;SDS011;37534;39.772;2.718;2023-05-10T05:44:30;0.50;;;0.50;;
51459;SDS011;37534;39.772;2.718;2023-05-10T05:46:56;0.77;;;0.50;;
51459;SDS011;37534;39.772;2.718;2023-05-10T05:49:22;1.15;;;0.52;;
51459;SDS011;37534;39.772;2.718;2023-05-10T05:51:47;0.43;;;0.30;;
51459;SDS011;37534;39.772;2.718;2023-05-10T05:54:14;4.15;;;1.05;;
51459;SDS011;37534;39.772;2.718;2023-05-10T05:56:40;1.13;;;0.47;;
51459;SDS011;37534;39.772;2.718;2023-05-10T05:59:05;1.10;;;0.75;;
51459;SDS011;37534;39.772;2.718;2023-05-10T06:01:31;0.80;;;0.60;;
51459;SDS011;37534;39.772;2.718;2023-05-10T06:03:56;0.70;;;0.70;;
51459;SDS011;37534;39.772;2.718;2023-05-10T06:06:22;1.92;;;0.90;;
51459;SDS011;37534;39.772;2.718;2023-05-10T06:08:50;0.68;;;0.40;;
51459;SDS011;37534;39.772;2.718;2023-05-10T06:11:16;3.08;;;0.70;;
51459;SDS011;37534;39.772;2.718;2023-05-10T06:13:41;8.82;;;0.90;;
51459;SDS011;37534;39.772;2.718;2023-05-10T06:16:07;1.25;;;0.50;;
51459;SDS011;37534;39.772;2.718;2023-05-10T06:18:33;0.73;;;0.60;;
51459;SDS011;37534;39.772;2.718;2023-05-10T06:20:59;1.25;;;0.68;;
51459;SDS011;37534;39.772;2.718;2023-05-10T06:23:25;0.75;;;0.52;;
51459;SDS011;37534;39.772;2.718;2023-05-10T06:25:51;6.43;;;1.02;;
51459;SDS011;37534;39.772;2.718;2023-05-10T06:28:16;1.20;;;0.30;;
51459;SDS011;37534;39.772;2.718;2023-05-10T06:30:42;1.77;;;0.68;;
51459;SDS011;37534;39.772;2.718;2023-05-10T06:33:07;0.85;;;0.50;;
51459;SDS011;37534;39.772;2.718;2023-05-10T06:35:33;0.85;;;0.47;;
51459;SDS011;37534;39.772;2.718;2023-05-10T06:37:59;3.92;;;0.80;;
51459;SDS011;37534;39.772;2.718;2023-05-10T06:40:24;1.80;;;1.33;;
51459;SDS011;37534;39.772;2.718;2023-05-10T06:42:50;0.75;;;0.63;;
51459;SDS011;37534;39.772;2.718;2023-05-10T06:45:16;2.65;;;0.60;;
51459;SDS011;37534;39.772;2.718;2023-05-10T06:47:42;1.27;;;0.65;;
51459;SDS011;37534;39.772;2.718;2023-05-10T06:50:08;1.08;;;0.50;;
51459;SDS011;37534;39.772;2.718;2023-05-10T06:52:34;1.35;;;0.70;;
51459;SDS011;37534;39.772;2.718;2023-05-10T06:55:00;3.15;;;1.10;;
51459;SDS011;37534;39.772;2.718;2023-05-10T06:57:26;0.82;;;0.65;;
51459;SDS011;37534;39.772;2.718;2023-05-10T06:59:52;2.28;;;0.75;;
51459;SDS011;37534;39.772;2.718;2023-05-10T07:02:17;1.95;;;0.80;;
51459;SDS011;37534;39.772;2.718;2023-05-10T07:04:43;0.50;;;0.50;;
51459;SDS011;37534;39.772;2.718;2023-05-10T07:07:09;1.67;;;0.60;;
51459;SDS011;37534;39.772;2.718;2023-05-10T07:09:34;0.90;;;0.50;;
51459;SDS011;37534;39.772;2.718;2023-05-10T07:12:00;0.82;;;0.82;;
51459;SDS011;37534;39.772;2.718;2023-05-10T07:14:27;1.85;;;0.70;;
51459;SDS011;37534;39.772;2.718;2023-05-10T07:16:52;0.95;;;0.57;;
51459;SDS011;37534;39.772;2.718;2023-05-10T07:19:18;2.28;;;0.95;;
51459;SDS011;37534;39.772;2.718;2023-05-10T07:21:44;3.05;;;0.80;;
51459;SDS011;37534;39.772;2.718;2023-05-10T07:24:10;1.90;;;0.75;;
51459;SDS011;37534;39.772;2.718;2023-05-10T07:26:35;4.38;;;1.45;;
51459;SDS011;37534;39.772;2.718;2023-05-10T07:29:01;1.00;;;0.80;;
51459;SDS011;37534;39.772;2.718;2023-05-10T07:31:27;3.13;;;0.75;;
51459;SDS011;37534;39.772;2.718;2023-05-10T07:33:53;1.25;;;0.82;;
51459;SDS011;37534;39.772;2.718;2023-05-10T07:36:18;0.50;;;0.50;;
51459;SDS011;37534;39.772;2.718;2023-05-10T07:38:44;5.95;;;1.52;;
51459;SDS011;37534;39.772;2.718;2023-05-10T07:41:11;5.32;;;1.85;;
51459;SDS011;37534;39.772;2.718;2023-05-10T07:43:37;5.35;;;1.55;;
51459;SDS011;37534;39.772;2.718;2023-05-10T07:46:02;8.10;;;1.85;;
51459;SDS011;37534;39.772;2.718;2023-05-10T07:48:28;7.47;;;1.70;;
51459;SDS011;37534;39.772;2.718;2023-05-10T07:50:57;5.47;;;1.83;;
51459;SDS011;37534;39.772;2.718;2023-05-10T07:53:22;4.82;;;2.03;;
51459;SDS011;37534;39.772;2.718;2023-05-10T07:55:51;5.55;;;1.98;;
51459;SDS011;37534;39.772;2.718;2023-05-10T07:58:22;4.97;;;2.17;;
51459;SDS011;37534;39.772;2.718;2023-05-10T08:00:48;13.07;;;3.03;;
51459;SDS011;37534;39.772;2.718;2023-05-10T08:03:14;7.95;;;2.30;;
51459;SDS011;37534;39.772;2.718;2023-05-10T08:05:40;16.02;;;3.45;;
51459;SDS011;37534;39.772;2.718;2023-05-10T08:08:06;8.93;;;2.05;;
51459;SDS011;37534;39.772;2.718;2023-05-10T08:10:31;4.55;;;2.35;;
51459;SDS011;37534;39.772;2.718;2023-05-10T08:13:00;13.07;;;2.33;;
51459;SDS011;37534;39.772;2.718;2023-05-10T08:15:25;4.78;;;2.15;;
51459;SDS011;37534;39.772;2.718;2023-05-10T08:17:51;5.35;;;1.92;;
51459;SDS011;37534;39.772;2.718;2023-05-10T08:20:17;6.80;;;3.30;;
51459;SDS011;37534;39.772;2.718;2023-05-10T08:22:44;4.78;;;1.70;;
51459;SDS011;37534;39.772;2.718;2023-05-10T08:25:10;6.72;;;2.10;;
51459;SDS011;37534;39.772;2.718;2023-05-10T08:27:36;10.43;;;2.95;;
51459;SDS011;37534;39.772;2.718;2023-05-10T08:30:01;10.35;;;3.20;;
51459;SDS011;37534;39.772;2.718;2023-05-10T08:32:27;8.70;;;2.70;;
51459;SDS011;37534;39.772;2.718;2023-05-10T08:34:53;10.70;;;2.55;;
51459;SDS011;37534;39.772;2.718;2023-05-10T08:37:18;7.55;;;2.50;;
51459;SDS011;37534;39.772;2.718;2023-05-10T08:39:44;6.90;;;2.08;;
51459;SDS011;37534;39.772;2.718;2023-05-10T08:42:12;5.28;;;1.98;;
51459;SDS011;37534;39.772;2.718;2023-05-10T08:44:44;5.22;;;2.20;;
51459;SDS011;37534;39.772;2.718;2023-05-10T08:47:13;11.05;;;3.05;;
51459;SDS011;37534;39.772;2.718;2023-05-10T08:49:41;6.78;;;2.00;;
51459;SDS011;37534;39.772;2.718;2023-05-10T08:52:08;14.43;;;2.25;;
51459;SDS011;37534;39.772;2.718;2023-05-10T08:54:38;9.35;;;2.50;;
51459;SDS011;37534;39.772;2.718;2023-05-10T08:57:04;15.70;;;3.00;;
51459;SDS011;37534;39.772;2.718;2023-05-10T08:59:29;5.75;;;2.45;;
51459;SDS011;37534;39.772;2.718;2023-05-10T09:01:58;6.30;;;2.17;;
51459;SDS011;37534;39.772;2.718;2023-05-10T09:04:25;16.30;;;4.35;;
51459;SDS011;37534;39.772;2.718;2023-05-10T09:06:53;14.77;;;12.18;;
51459;SDS011;37534;39.772;2.718;2023-05-10T09:09:19;43.72;;;27.98;;
51459;SDS011;37534;39.772;2.718;2023-05-10T09:11:46;24.13;;;9.77;;
51459;SDS011;37534;39.772;2.718;2023-05-10T09:14:12;10.57;;;7.07;;
51459;SDS011;37534;39.772;2.718;2023-05-10T09:16:39;14.75;;;4.35;;
51459;SDS011;37534;39.772;2.718;2023-05-10T09:19:05;16.65;;;3.47;;
51459;SDS011;37534;39.772;2.718;2023-05-10T09:21:32;9.32;;;2.97;;
51459;SDS011;37534;39.772;2.718;2023-05-10T09:24:02;11.70;;;4.90;;
51459;SDS011;37534;39.772;2.718;2023-05-10T09:26:29;12.73;;;3.65;;
51459;SDS011;37534;39.772;2.718;2023-05-10T09:28:56;22.00;;;11.32;;
51459;SDS011;37534;39.772;2.718;2023-05-10T09:31:23;8.50;;;4.22;;
51459;SDS011;37534;39.772;2.718;2023-05-10T09:33:51;5.45;;;2.03;;
51459;SDS011;37534;39.772;2.718;2023-05-10T09:36:17;21.00;;;3.72;;
51459;SDS011;37534;39.772;2.718;2023-05-10T09:38:46;14.60;;;3.85;;
51459;SDS011;37534;39.772;2.718;2023-05-10T09:41:19;13.18;;;4.03;;
51459;SDS011;37534;39.772;2.718;2023-05-10T09:43:46;6.15;;;3.15;;
51459;SDS011;37534;39.772;2.718;2023-05-10T09:46:12;9.73;;;3.15;;
51459;SDS011;37534;39.772;2.718;2023-05-10T09:48:42;22.63;;;4.15;;
51459;SDS011;37534;39.772;2.718;2023-05-10T09:51:09;10.52;;;2.53;;
51459;SDS011;37534;39.772;2.718;2023-05-10T09:53:35;9.38;;;2.97;;
51459;SDS011;37534;39.772;2.718;2023-05-10T09:56:00;4.78;;;1.92;;
51459;SDS011;37534;39.772;2.718;2023-05-10T09:58:26;14.30;;;3.90;;
51459;SDS011;37534;39.772;2.718;2023-05-10T10:00:51;12.52;;;4.90;;
51459;SDS011;37534;39.772;2.718;2023-05-10T10:03:19;7.45;;;3.22;;
51459;SDS011;37534;39.772;2.718;2023-05-10T10:05:46;18.92;;;7.80;;
51459;SDS011;37534;39.772;2.718;2023-05-10T10:08:12;13.50;;;7.30;;
51459;SDS011;37534;39.772;2.718;2023-05-10T10:10:39;12.07;;;5.10;;
51459;SDS011;37534;39.772;2.718;2023-05-10T10:13:11;8.18;;;3.35;;
51459;SDS011;37534;39.772;2.718;2023-05-10T10:15:37;9.45;;;2.72;;
51459;SDS011;37534;39.772;2.718;2023-05-10T10:18:03;4.18;;;2.20;;
51459;SDS011;37534;39.772;2.718;2023-05-10T10:20:30;8.80;;;2.65;;
51459;SDS011;37534;39.772;2.718;2023-05-10T10:22:56;6.18;;;2.60;;
51459;SDS011;37534;39.772;2.718;2023-05-10T10:25:22;10.45;;;2.50;;
51459;SDS011;37534;39.772;2.718;2023-05-10T10:30:27;12.57;;;4.55;;
51459;SDS011;37534;39.772;2.718;2023-05-10T10:35:52;9.85;;;3.42;;
51459;SDS011;37534;39.772;2.718;2023-05-10T10:38:19;6.25;;;3.20;;
51459;SDS011;37534;39.772;2.718;2023-05-10T10:40:45;8.88;;;3.35;;
51459;SDS011;37534;39.772;2.718;2023-05-10T10:43:25;12.48;;;3.40;;
51459;SDS011;37534;39.772;2.718;2023-05-10T10:48:49;5.70;;;3.08;;
51459;SDS011;37534;39.772;2.718;2023-05-10T10:51:36;6.40;;;2.58;;
51459;SDS011;37534;39.772;2.718;2023-05-10T10:54:09;9.32;;;2.72;;
51459;SDS011;37534;39.772;2.718;2023-05-10T10:56:35;4.60;;;2.55;;
51459;SDS011;37534;39.772;2.718;2023-05-10T10:59:01;8.80;;;2.97;;
51459;SDS011;37534;39.772;2.718;2023-05-10T11:01:26;15.05;;;3.22;;
51459;SDS011;37534;39.772;2.718;2023-05-10T11:06:30;9.38;;;2.47;;
51459;SDS011;37534;39.772;2.718;2023-05-10T11:08:57;6.38;;;2.65;;
51459;SDS011;37534;39.772;2.718;2023-05-10T11:11:23;3.60;;;1.88;;
51459;SDS011;37534;39.772;2.718;2023-05-10T11:13:49;9.30;;;2.78;;
51459;SDS011;37534;39.772;2.718;2023-05-10T11:16:18;7.97;;;2.88;;
51459;SDS011;37534;39.772;2.718;2023-05-10T11:19:01;5.22;;;2.40;;
51459;SDS011;37534;39.772;2.718;2023-05-10T11:21:29;4.78;;;2.38;;
51459;SDS011;37534;39.772;2.718;2023-05-10T11:23:56;8.52;;;2.72;;
51459;SDS011;37534;39.772;2.718;2023-05-10T11:26:23;3.03;;;1.95;;
51459;SDS011;37534;39.772;2.718;2023-05-10T11:28:51;8.73;;;2.42;;
51459;SDS011;37534;39.772;2.718;2023-05-10T11:31:20;6.28;;;2.22;;
51459;SDS011;37534;39.772;2.718;2023-05-10T11:34:02;7.18;;;1.98;;
51459;SDS011;37534;39.772;2.718;2023-05-10T11:36:29;6.10;;;3.05;;
51459;SDS011;37534;39.772;2.718;2023-05-10T11:38:58;9.18;;;1.95;;
51459;SDS011;37534;39.772;2.718;2023-05-10T11:41:24;1.77;;;1.08;;
51459;SDS011;37534;39.772;2.718;2023-05-10T11:43:53;4.85;;;2.00;;
51459;SDS011;37534;39.772;2.718;2023-05-10T11:46:20;2.95;;;1.73;;
51459;SDS011;37534;39.772;2.718;2023-05-10T11:48:49;7.10;;;2.63;;
51459;SDS011;37534;39.772;2.718;2023-05-10T11:51:19;5.18;;;1.75;;
51459;SDS011;37534;39.772;2.718;2023-05-10T11:53:49;3.95;;;1.73;;
51459;SDS011;37534;39.772;2.718;2023-05-10T11:56:17;12.35;;;2.53;;
51459;SDS011;37534;39.772;2.718;2023-05-10T11:58:43;3.53;;;1.98;;
51459;SDS011;37534;39.772;2.718;2023-05-10T12:01:09;4.85;;;1.60;;
51459;SDS011;37534;39.772;2.718;2023-05-10T12:03:35;6.03;;;1.80;;
51459;SDS011;37534;39.772;2.718;2023-05-10T12:06:02;3.53;;;1.33;;
51459;SDS011;37534;39.772;2.718;2023-05-10T12:08:29;2.60;;;1.50;;
51459;SDS011;37534;39.772;2.718;2023-05-10T12:11:08;4.57;;;1.63;;
51459;SDS011;37534;39.772;2.718;2023-05-10T12:13:39;3.28;;;1.40;;
51459;SDS011;37534;39.772;2.718;2023-05-10T12:16:19;2.00;;;1.30;;
51459;SDS011;37534;39.772;2.718;2023-05-10T12:18:49;7.60;;;2.20;;
51459;SDS011;37534;39.772;2.718;2023-05-10T12:21:21;5.75;;;1.80;;
51459;SDS011;37534;39.772;2.718;2023-05-10T12:23:51;4.72;;;1.50;;
51459;SDS011;37534;39.772;2.718;2023-05-10T12:26:21;3.42;;;1.65;;
51459;SDS011;37534;39.772;2.718;2023-05-10T12:28:47;6.85;;;1.90;;
51459;SDS011;37534;39.772;2.718;2023-05-10T12:31:13;4.07;;;1.80;;
51459;SDS011;37534;39.772;2.718;2023-05-10T12:33:39;7.10;;;2.30;;
51459;SDS011;37534;39.772;2.718;2023-05-10T12:36:08;4.93;;;1.77;;
51459;SDS011;37534;39.772;2.718;2023-05-10T12:38:43;2.47;;;1.40;;
51459;SDS011;37534;39.772;2.718;2023-05-10T12:41:16;7.93;;;1.80;;
51459;SDS011;37534;39.772;2.718;2023-05-10T12:43:43;6.00;;;2.15;;
51459;SDS011;37534;39.772;2.718;2023-05-10T12:46:12;12.45;;;1.65;;
51459;SDS011;37534;39.772;2.718;2023-05-10T12:48:40;1.63;;;1.52;;
51459;SDS011;37534;39.772;2.718;2023-05-10T12:51:07;3.40;;;1.73;;
51459;SDS011;37534;39.772;2.718;2023-05-10T12:53:37;1.90;;;1.00;;
51459;SDS011;37534;39.772;2.718;2023-05-10T12:56:04;10.23;;;2.03;;
51459;SDS011;37534;39.772;2.718;2023-05-10T12:58:30;3.08;;;1.88;;
51459;SDS011;37534;39.772;2.718;2023-05-10T13:00:57;4.30;;;1.55;;
51459;SDS011;37534;39.772;2.718;2023-05-10T13:03:23;5.60;;;1.80;;
51459;SDS011;37534;39.772;2.718;2023-05-10T13:05:49;5.22;;;2.13;;
51459;SDS011;37534;39.772;2.718;2023-05-10T13:08:15;12.05;;;2.15;;
51459;SDS011;37534;39.772;2.718;2023-05-10T13:10:40;9.02;;;2.10;;
51459;SDS011;37534;39.772;2.718;2023-05-10T13:13:06;4.13;;;2.15;;
51459;SDS011;37534;39.772;2.718;2023-05-10T13:15:33;2.92;;;1.20;;
51459;SDS011;37534;39.772;2.718;2023-05-10T13:17:58;6.80;;;1.70;;
51459;SDS011;37534;39.772;2.718;2023-05-10T13:20:25;5.57;;;1.70;;
51459;SDS011;37534;39.772;2.718;2023-05-10T13:22:50;9.00;;;2.00;;
51459;SDS011;37534;39.772;2.718;2023-05-10T13:25:16;9.18;;;2.20;;
51459;SDS011;37534;39.772;2.718;2023-05-10T13:27:42;4.97;;;1.90;;
51459;SDS011;37534;39.772;2.718;2023-05-10T13:30:08;4.40;;;1.83;;
51459;SDS011;37534;39.772;2.718;2023-05-10T13:32:34;5.53;;;1.45;;
51459;SDS011;37534;39.772;2.718;2023-05-10T13:35:00;3.95;;;1.63;;
51459;SDS011;37534;39.772;2.718;2023-05-10T13:37:28;9.00;;;2.10;;
51459;SDS011;37534;39.772;2.718;2023-05-10T13:39:54;6.20;;;1.77;;
51459;SDS011;37534;39.772;2.718;2023-05-10T13:42:21;3.38;;;1.70;;
51459;SDS011;37534;39.772;2.718;2023-05-10T13:44:47;9.48;;;1.85;;
51459;SDS011;37534;39.772;2.718;2023-05-10T13:47:12;3.13;;;1.15;;
51459;SDS011;37534;39.772;2.718;2023-05-10T13:49:38;4.25;;;1.40;;
51459;SDS011;37534;39.772;2.718;2023-05-10T13:52:03;3.80;;;1.50;;
51459;SDS011;37534;39.772;2.718;2023-05-10T13:54:32;8.60;;;1.38;;
51459;SDS011;37534;39.772;2.718;2023-05-10T13:56:58;2.30;;;1.17;;
51459;SDS011;37534;39.772;2.718;2023-05-10T13:59:25;3.50;;;2.08;;
51459;SDS011;37534;39.772;2.718;2023-05-10T14:01:50;5.95;;;1.38;;
51459;SDS011;37534;39.772;2.718;2023-05-10T14:04:16;4.00;;;1.52;;
51459;SDS011;37534;39.772;2.718;2023-05-10T14:06:41;2.10;;;1.40;;
51459;SDS011;37534;39.772;2.718;2023-05-10T14:09:07;3.25;;;1.63;;
51459;SDS011;37534;39.772;2.718;2023-05-10T14:11:32;2.80;;;1.15;;
51459;SDS011;37534;39.772;2.718;2023-05-10T14:13:58;3.03;;;1.27;;
51459;SDS011;37534;39.772;2.718;2023-05-10T14:16:23;3.15;;;1.30;;
51459;SDS011;37534;39.772;2.718;2023-05-10T14:18:49;3.25;;;1.20;;
51459;SDS011;37534;39.772;2.718;2023-05-10T14:21:15;9.35;;;1.75;;
51459;SDS011;37534;39.772;2.718;2023-05-10T14:23:40;3.78;;;1.63;;
51459;SDS011;37534;39.772;2.718;2023-05-10T14:26:06;2.70;;;1.60;;
51459;SDS011;37534;39.772;2.718;2023-05-10T14:28:31;3.97;;;1.65;;
51459;SDS011;37534;39.772;2.718;2023-05-10T14:30:57;3.28;;;1.40;;
51459;SDS011;37534;39.772;2.718;2023-05-10T14:33:24;3.00;;;1.50;;
51459;SDS011;37534;39.772;2.718;2023-05-10T14:35:49;2.17;;;1.23;;
51459;SDS011;37534;39.772;2.718;2023-05-10T14:38:16;7.65;;;1.63;;
51459;SDS011;37534;39.772;2.718;2023-05-10T14:40:41;4.93;;;2.13;;
51459;SDS011;37534;39.772;2.718;2023-05-10T14:43:08;8.77;;;1.55;;
51459;SDS011;37534;39.772;2.718;2023-05-10T14:45:33;4.55;;;1.70;;
51459;SDS011;37534;39.772;2.718;2023-05-10T14:47:59;2.60;;;1.13;;
51459;SDS011;37534;39.772;2.718;2023-05-10T14:50:25;3.38;;;1.25;;
51459;SDS011;37534;39.772;2.718;2023-05-10T14:52:51;2.53;;;1.05;;
51459;SDS011;37534;39.772;2.718;2023-05-10T14:55:16;2.40;;;0.85;;
51459;SDS011;37534;39.772;2.718;2023-05-10T14:57:42;3.78;;;1.70;;
51459;SDS011;37534;39.772;2.718;2023-05-10T15:00:09;6.80;;;1.20;;
51459;SDS011;37534;39.772;2.718;2023-05-10T15:02:35;4.13;;;1.60;;
51459;SDS011;37534;39.772;2.718;2023-05-10T15:05:01;1.65;;;1.33;;
51459;SDS011;37534;39.772;2.718;2023-05-10T15:07:26;3.05;;;1.42;;
51459;SDS011;37534;39.772;2.718;2023-05-10T15:09:52;4.45;;;1.33;;
51459;SDS011;37534;39.772;2.718;2023-05-10T15:12:17;4.43;;;1.40;;
51459;SDS011;37534;39.772;2.718;2023-05-10T15:14:43;7.78;;;1.67;;
51459;SDS011;37534;39.772;2.718;2023-05-10T15:17:09;3.90;;;1.38;;